Time;durP1;ratioP1;P1;durP2;ratioP2;P2;SDS_P1;SDS_P2;PMS_P1;PMS_P2;Temp;Humidity;BMP_temperature;BMP_pressure;BME280_temperature;BME280_humidity;BME280_pressure;Samples;Min_cycle;Max_cycle;Signal;HPM_P1;HPM_P2
2022/08/21 00:00:54;;;;;;;46.85;17.42;;;17.90;99.90;;;;;;5000046;28;20516;-62
2022/08/21 00:03:19;;;;;;;62.92;18.75;;;17.90;99.90;;;;;;4995198;28;20422;-63
2022/08/21 00:05:49;;;;;;;65.97;19.42;;;17.90;99.90;;;;;;4998313;28;20049;-63
2022/08/21 00:08:16;;;;;;;45.03;24.38;;;17.90;99.90;;;;;;4998028;28;20029;-61
2022/08/21 00:10:43;;;;;;;58.88;24.85;;;17.90;99.90;;;;;;4999900;28;20493;-62
2022/08/21 00:13:09;;;;;;;59.33;24.13;;;17.90;99.90;;;;;;5002507;28;20026;-61
2022/08/21 00:15:37;;;;;;;66.38;23.42;;;17.90;99.90;;;;;;4994369;28;20433;-61
2022/08/21 00:18:05;;;;;;;46.30;22.65;;;17.90;99.90;;;;;;4997062;28;20034;-61
2022/08/21 00:20:32;;;;;;;91.38;22.58;;;17.80;99.90;;;;;;5002677;28;20034;-61
2022/08/21 00:22:57;;;;;;;66.97;21.83;;;17.90;99.90;;;;;;5002604;28;20037;-59
2022/08/21 00:25:23;;;;;;;47.75;19.52;;;17.80;99.90;;;;;;5001290;28;20042;-61
2022/08/21 00:27:49;;;;;;;79.85;19.10;;;17.80;99.90;;;;;;4997584;28;20038;-62
2022/08/21 00:30:16;;;;;;;62.13;18.20;;;17.80;99.90;;;;;;4998654;28;20418;-64
2022/08/21 00:32:43;;;;;;;79.45;19.77;;;17.70;99.90;;;;;;5002721;28;20033;-61
2022/08/21 00:35:13;;;;;;;49.80;18.25;;;17.70;99.90;;;;;;5001346;28;20036;-61
2022/08/21 00:37:40;;;;;;;51.70;17.70;;;17.70;99.90;;;;;;5002263;28;20509;-64
2022/08/21 00:40:08;;;;;;;65.57;18.02;;;17.70;99.90;;;;;;5000512;28;20030;-63
2022/08/21 00:42:34;;;;;;;227.93;24.70;;;17.70;99.90;;;;;;4998417;28;20042;-61
2022/08/21 00:45:00;;;;;;;167.25;23.88;;;17.50;99.90;;;;;;5000031;28;20022;-61
2022/08/21 00:47:26;;;;;;;64.70;19.83;;;17.50;99.90;;;;;;5002783;28;20497;-62
2022/08/21 00:49:52;;;;;;;61.92;19.08;;;17.50;99.90;;;;;;5000058;28;20057;-62
2022/08/21 00:52:22;;;;;;;47.42;20.42;;;17.50;99.90;;;;;;5000632;28;20074;-61
2022/08/21 00:54:49;;;;;;;51.28;19.45;;;17.40;99.90;;;;;;4997495;28;20061;-61
2022/08/21 00:57:19;;;;;;;48.67;20.67;;;17.40;99.90;;;;;;5000927;28;20117;-61
2022/08/21 00:59:48;;;;;;;152.00;24.05;;;17.50;99.90;;;;;;4998781;28;20461;-61
2022/08/21 01:02:17;;;;;;;47.67;19.70;;;17.50;99.90;;;;;;5002950;28;20413;-63
2022/08/21 01:04:44;;;;;;;84.18;18.25;;;17.40;99.90;;;;;;4998281;28;20655;-61
2022/08/21 01:07:10;;;;;;;68.80;17.70;;;17.40;99.90;;;;;;4999365;28;20050;-61
2022/08/21 01:09:37;;;;;;;48.35;18.05;;;17.50;99.90;;;;;;4996998;28;20037;-61
2022/08/21 01:12:03;;;;;;;29.63;17.95;;;17.40;99.90;;;;;;4999228;28;20403;-63
2022/08/21 01:14:30;;;;;;;133.38;22.13;;;17.50;99.90;;;;;;4997392;28;20113;-61
2022/08/21 01:16:57;;;;;;;107.45;21.55;;;17.40;99.90;;;;;;5001850;28;20037;-61
2022/08/21 01:19:24;;;;;;;86.55;19.55;;;17.40;99.90;;;;;;4996011;28;20047;-63
2022/08/21 01:21:50;;;;;;;111.88;20.50;;;17.40;99.90;;;;;;4999758;28;20033;-61
2022/08/21 01:24:16;;;;;;;35.75;17.92;;;17.40;99.90;;;;;;5001900;28;20393;-61
2022/08/21 01:26:43;;;;;;;21.00;18.98;;;17.40;99.90;;;;;;5000035;28;20033;-62
2022/08/21 01:29:22;;;;;;;21.30;17.98;;;17.40;99.90;;;;;;4995649;28;20034;-64
2022/08/21 01:31:48;;;;;;;19.35;17.45;;;17.40;99.90;;;;;;4998848;28;20026;-62
2022/08/21 01:34:15;;;;;;;20.65;18.55;;;17.40;99.90;;;;;;4998612;28;20033;-63
2022/08/21 01:36:42;;;;;;;18.73;17.15;;;17.40;99.90;;;;;;4995800;28;20029;-61
2022/08/21 01:39:08;;;;;;;18.73;16.80;;;17.30;99.90;;;;;;4994902;28;20029;-63
2022/08/21 01:41:34;;;;;;;21.88;19.95;;;17.40;99.90;;;;;;4995520;28;20493;-63
2022/08/21 01:44:00;;;;;;;21.13;18.88;;;17.30;99.90;;;;;;4996467;28;20030;-64
2022/08/21 01:46:26;;;;;;;22.65;20.25;;;17.30;99.90;;;;;;4999331;28;20486;-60
2022/08/21 01:48:52;;;;;;;21.25;19.17;;;17.20;99.90;;;;;;5000377;28;20022;-61
2022/08/21 01:51:18;;;;;;;23.00;20.63;;;17.20;99.90;;;;;;4998970;28;20113;-61
2022/08/21 01:53:43;;;;;;;27.48;22.92;;;17.10;99.90;;;;;;4999005;28;20389;-61
2022/08/21 01:56:11;;;;;;;26.55;23.08;;;17.10;99.90;;;;;;4993512;28;20018;-63
2022/08/21 01:58:38;;;;;;;37.20;24.65;;;17.10;99.90;;;;;;4997740;28;20116;-61
2022/08/21 02:01:04;;;;;;;44.35;25.55;;;17.10;99.90;;;;;;4997804;28;20129;-60
2022/08/21 02:03:30;;;;;;;31.13;24.10;;;17.10;99.90;;;;;;4998940;28;20445;-61
2022/08/21 02:05:56;;;;;;;27.15;23.48;;;17.10;99.90;;;;;;5000053;28;20036;-62
2022/08/21 02:08:23;;;;;;;28.02;24.98;;;17.00;99.90;;;;;;4995675;28;20029;-61
2022/08/21 02:10:50;;;;;;;38.50;23.88;;;17.10;99.90;;;;;;4994833;28;20026;-62
2022/08/21 02:13:16;;;;;;;36.10;23.73;;;17.10;99.90;;;;;;4998305;28;20065;-61
2022/08/21 02:15:42;;;;;;;45.28;24.05;;;17.10;99.90;;;;;;4999288;28;20038;-61
2022/08/21 02:18:07;;;;;;;46.85;24.90;;;17.10;99.90;;;;;;5000529;28;20076;-63
2022/08/21 02:20:37;;;;;;;43.78;25.73;;;17.10;99.90;;;;;;4993449;28;20517;-61
2022/08/21 02:23:04;;;;;;;47.35;26.17;;;17.10;99.90;;;;;;4994748;28;20077;-62
2022/08/21 02:25:30;;;;;;;54.78;26.52;;;17.00;99.90;;;;;;4999641;28;20036;-64
2022/08/21 02:27:57;;;;;;;100.35;28.05;;;17.10;99.90;;;;;;5000014;28;20037;-62
2022/08/21 02:30:32;;;;;;;44.15;28.23;;;17.00;99.90;;;;;;4996233;28;20117;-61
2022/08/21 02:32:59;;;;;;;32.72;26.02;;;16.90;99.90;;;;;;4997276;28;20075;-64
2022/08/21 02:35:25;;;;;;;34.47;27.65;;;17.00;99.90;;;;;;4993807;28;20026;-61
2022/08/21 02:37:54;;;;;;;39.30;28.50;;;17.00;99.90;;;;;;4993462;28;20034;-64
2022/08/21 02:40:23;;;;;;;43.20;28.95;;;17.00;99.90;;;;;;4996339;28;20031;-61
2022/08/21 02:42:49;;;;;;;30.75;25.42;;;17.00;99.90;;;;;;4995587;28;20030;-62
2022/08/21 02:45:17;;;;;;;40.00;26.80;;;17.10;99.90;;;;;;4992633;28;20036;-62
2022/08/21 02:47:59;;;;;;;54.33;26.98;;;17.10;99.90;;;;;;4994529;28;20092;-63
2022/08/21 02:50:31;;;;;;;31.83;25.83;;;17.10;99.90;;;;;;4981259;28;20494;-61
2022/08/21 02:52:57;;;;;;;37.38;26.45;;;17.10;99.90;;;;;;4995238;28;20049;-61
2022/08/21 02:55:26;;;;;;;33.53;26.77;;;17.10;99.90;;;;;;4995354;28;20034;-61
2022/08/21 02:57:53;;;;;;;27.77;24.90;;;17.10;99.90;;;;;;4990843;28;20030;-61
2022/08/21 03:00:20;;;;;;;33.75;27.80;;;17.10;99.90;;;;;;4996184;28;20044;-61
2022/08/21 03:02:46;;;;;;;35.63;26.10;;;17.10;99.90;;;;;;4995544;28;20699;-63
2022/08/21 03:05:14;;;;;;;78.55;27.88;;;17.10;99.90;;;;;;4996863;28;20041;-61
2022/08/21 03:07:42;;;;;;;41.95;24.13;;;17.10;99.90;;;;;;4998173;28;20871;-61
2022/08/21 03:10:09;;;;;;;51.15;23.35;;;17.20;99.90;;;;;;4994643;28;20065;-63
2022/08/21 03:12:35;;;;;;;41.90;23.63;;;17.20;99.90;;;;;;4994142;28;20019;-62
2022/08/21 03:15:03;;;;;;;43.35;22.15;;;17.20;99.90;;;;;;4994477;28;20018;-61
2022/08/21 03:17:29;;;;;;;70.60;24.90;;;17.20;99.90;;;;;;4998633;28;20496;-63
2022/08/21 03:19:55;;;;;;;54.30;24.30;;;17.20;99.90;;;;;;4997407;28;20034;-61
2022/08/21 03:22:20;;;;;;;88.28;27.30;;;17.20;99.90;;;;;;5000506;28;20510;-62
2022/08/21 03:24:46;;;;;;;55.85;25.27;;;17.10;99.90;;;;;;4999569;28;20030;-63
2022/08/21 03:27:15;;;;;;;45.90;26.48;;;17.10;99.90;;;;;;5001516;28;20080;-63
2022/08/21 03:29:41;;;;;;;37.25;25.67;;;17.10;99.90;;;;;;5003271;28;20026;-65
2022/08/21 03:32:09;;;;;;;30.88;24.77;;;17.10;99.90;;;;;;4998037;28;20034;-60
2022/08/21 03:34:36;;;;;;;34.42;24.95;;;17.10;99.90;;;;;;4998769;28;20026;-59
2022/08/21 03:37:03;;;;;;;33.55;25.08;;;17.00;99.90;;;;;;5002717;28;20510;-59
2022/08/21 03:39:29;;;;;;;28.15;21.75;;;17.00;99.90;;;;;;4998439;28;20038;-59
2022/08/21 03:41:55;;;;;;;30.88;22.15;;;17.00;99.90;;;;;;5000560;28;20023;-59
2022/08/21 03:44:21;;;;;;;25.48;22.33;;;16.90;99.90;;;;;;5000048;28;20487;-60
2022/08/21 03:46:46;;;;;;;25.45;21.63;;;16.80;99.90;;;;;;4999592;28;20446;-59
2022/08/21 03:49:12;;;;;;;31.58;22.48;;;16.80;99.90;;;;;;5007430;28;20026;-59
2022/08/21 03:51:38;;;;;;;31.42;22.55;;;16.80;99.90;;;;;;5002248;28;20121;-60
2022/08/21 03:54:04;;;;;;;32.38;22.90;;;16.80;99.90;;;;;;5002046;28;20109;-60
2022/08/21 03:56:30;;;;;;;31.38;23.33;;;16.80;99.90;;;;;;5000353;28;20033;-60
2022/08/21 03:58:56;;;;;;;31.85;23.10;;;16.80;99.90;;;;;;4999790;28;20027;-59
2022/08/21 04:01:22;;;;;;;28.58;22.30;;;16.80;99.90;;;;;;4993641;28;20105;-59
2022/08/21 04:03:48;;;;;;;32.63;23.17;;;16.80;99.90;;;;;;5003665;28;20026;-59
2022/08/21 04:06:13;;;;;;;22.65;20.23;;;16.70;99.90;;;;;;5000666;28;20022;-59
2022/08/21 04:08:42;;;;;;;22.55;20.17;;;16.70;99.90;;;;;;5001002;28;20022;-59
2022/08/21 04:11:10;;;;;;;21.60;19.45;;;16.80;99.90;;;;;;4996941;28;20046;-59
2022/08/21 04:13:36;;;;;;;22.42;20.23;;;16.80;99.90;;;;;;4994364;28;20121;-60
2022/08/21 04:16:02;;;;;;;20.27;18.45;;;16.80;99.90;;;;;;5001026;28;20029;-60
2022/08/21 04:18:28;;;;;;;22.98;20.50;;;16.80;99.90;;;;;;4999959;28;20034;-60
2022/08/21 04:20:56;;;;;;;20.15;18.33;;;16.80;99.90;;;;;;5000140;28;20048;-59
2022/08/21 04:23:22;;;;;;;19.48;17.70;;;16.80;99.90;;;;;;4999134;28;20030;-59
2022/08/21 04:25:48;;;;;;;17.77;16.30;;;16.80;99.90;;;;;;5001592;28;20038;-60
2022/08/21 04:28:14;;;;;;;18.52;16.63;;;16.80;99.90;;;;;;4997214;28;20052;-59
2022/08/21 04:30:39;;;;;;;18.90;17.00;;;16.80;99.90;;;;;;5003191;28;20084;-59
2022/08/21 04:33:05;;;;;;;21.85;17.17;;;16.80;99.90;;;;;;5000852;28;20022;-60
2022/08/21 04:35:31;;;;;;;15.77;14.32;;;16.80;99.90;;;;;;5001507;28;20026;-59
2022/08/21 04:37:58;;;;;;;17.88;16.27;;;16.70;99.90;;;;;;5003526;28;20034;-59
2022/08/21 04:40:25;;;;;;;16.58;15.23;;;16.80;99.90;;;;;;4993903;28;20069;-59
2022/08/21 04:43:03;;;;;;;18.27;16.55;;;16.70;99.90;;;;;;4999459;28;20070;-59
2022/08/21 04:45:38;;;;;;;16.17;14.88;;;16.70;99.90;;;;;;4999081;28;20441;-59
2022/08/21 04:48:06;;;;;;;16.80;15.30;;;16.70;99.90;;;;;;5000778;28;20034;-60
2022/08/21 04:50:38;;;;;;;15.77;14.30;;;16.70;99.90;;;;;;5002089;28;20097;-59
2022/08/21 04:53:26;;;;;;;17.50;16.10;;;16.80;99.90;;;;;;4998976;28;20046;-59
2022/08/21 04:55:54;;;;;;;15.30;14.00;;;16.80;99.90;;;;;;4998414;28;20046;-60
2022/08/21 04:58:22;;;;;;;17.73;16.02;;;16.80;99.90;;;;;;4997829;28;20038;-59
2022/08/21 05:00:48;;;;;;;18.17;16.30;;;16.80;99.90;;;;;;5003395;28;20031;-59
2022/08/21 05:03:17;;;;;;;16.92;15.38;;;16.80;99.90;;;;;;4993736;28;20118;-60
2022/08/21 05:05:43;;;;;;;16.27;14.88;;;16.80;99.90;;;;;;4997766;28;20038;-59
2022/08/21 05:08:14;;;;;;;15.63;14.32;;;16.80;99.90;;;;;;4997150;28;20041;-59
2022/08/21 05:10:40;;;;;;;16.38;15.05;;;16.80;99.90;;;;;;5000221;28;20022;-59
2022/08/21 05:13:06;;;;;;;16.55;14.85;;;16.90;99.90;;;;;;5001481;28;20031;-60
2022/08/21 05:15:32;;;;;;;15.02;13.82;;;16.80;99.90;;;;;;4992757;28;20110;-59
2022/08/21 05:17:58;;;;;;;18.98;17.38;;;16.90;99.90;;;;;;4999131;28;20109;-60
2022/08/21 05:20:24;;;;;;;17.23;15.52;;;16.90;99.90;;;;;;4997157;28;20515;-59
2022/08/21 05:22:49;;;;;;;18.08;16.55;;;16.90;99.90;;;;;;5001929;28;20057;-59
2022/08/21 05:25:16;;;;;;;17.15;15.60;;;17.00;99.90;;;;;;4999737;28;20030;-59
2022/08/21 05:27:42;;;;;;;18.25;16.73;;;17.00;99.90;;;;;;4999666;28;20040;-59
2022/08/21 05:30:08;;;;;;;15.55;14.35;;;17.00;99.90;;;;;;4998333;28;20130;-59
2022/08/21 05:32:35;;;;;;;18.45;16.85;;;17.00;99.90;;;;;;4997440;28;20018;-59
2022/08/21 05:35:02;;;;;;;18.50;17.00;;;17.00;99.90;;;;;;4998854;28;20048;-59
2022/08/21 05:37:28;;;;;;;16.75;15.32;;;17.00;99.90;;;;;;4995133;28;20030;-59
2022/08/21 05:39:53;;;;;;;15.80;14.50;;;17.00;99.90;;;;;;5000223;28;20041;-59
2022/08/21 05:42:19;;;;;;;18.23;16.20;;;17.10;99.90;;;;;;4996769;28;20030;-59
2022/08/21 05:44:45;;;;;;;17.05;15.60;;;17.30;99.90;;;;;;4996881;28;20026;-59
2022/08/21 05:47:11;;;;;;;17.77;16.33;;;17.40;99.90;;;;;;4996625;28;20567;-59
2022/08/21 05:49:37;;;;;;;17.42;15.82;;;17.60;99.90;;;;;;4994014;28;20061;-59
2022/08/21 05:52:04;;;;;;;17.70;16.23;;;17.80;99.90;;;;;;4997702;28;20096;-59
2022/08/21 05:54:30;;;;;;;17.40;16.00;;;18.00;99.90;;;;;;4996285;28;20034;-60
2022/08/21 05:56:56;;;;;;;17.10;15.50;;;18.10;99.90;;;;;;5004052;28;20113;-60
2022/08/21 05:59:23;;;;;;;14.77;13.50;;;18.40;99.90;;;;;;5000220;28;20018;-59
2022/08/21 06:01:49;;;;;;;13.82;12.50;;;19.00;99.90;;;;;;4997549;28;20041;-60
2022/08/21 06:04:16;;;;;;;13.02;12.02;;;19.90;99.90;;;;;;4999231;28;20034;-60
2022/08/21 06:06:41;;;;;;;11.95;10.90;;;20.80;99.90;;;;;;4997461;28;20027;-60
2022/08/21 06:09:07;;;;;;;11.68;10.77;;;21.60;99.90;;;;;;5001744;28;20091;-60
2022/08/21 06:11:34;;;;;;;10.32;9.60;;;22.50;99.90;;;;;;4996512;28;20101;-60
2022/08/21 06:14:00;;;;;;;10.77;10.00;;;23.30;99.90;;;;;;4998456;28;20120;-59
2022/08/21 06:16:26;;;;;;;11.15;10.35;;;24.10;99.90;;;;;;5000748;28;20038;-60
2022/08/21 06:18:52;;;;;;;10.73;9.63;;;24.90;99.90;;;;;;4997482;28;20030;-60
2022/08/21 06:21:18;;;;;;;10.00;9.25;;;25.70;99.90;;;;;;4997011;28;20033;-57
2022/08/21 06:23:44;;;;;;;9.63;8.93;;;26.20;99.90;;;;;;4997979;28;20037;-57
2022/08/21 06:26:12;;;;;;;9.75;9.05;;;26.70;99.90;;;;;;4998053;28;20055;-57
2022/08/21 06:28:38;;;;;;;10.13;9.43;;;26.80;99.90;;;;;;4996634;28;20142;-57
2022/08/21 06:31:11;;;;;;;10.23;9.48;;;26.60;99.90;;;;;;4994719;28;20030;-57
2022/08/21 06:33:37;;;;;;;11.18;10.38;;;26.40;99.90;;;;;;4995262;28;20031;-57
2022/08/21 06:36:03;;;;;;;10.55;9.75;;;25.90;99.90;;;;;;4996055;28;20026;-57
2022/08/21 06:38:29;;;;;;;12.15;11.27;;;25.50;99.90;;;;;;5000758;28;20018;-57
2022/08/21 06:40:54;;;;;;;11.82;11.02;;;25.20;99.90;;;;;;4992522;28;20537;-58
2022/08/21 06:43:20;;;;;;;11.25;10.52;;;24.90;99.90;;;;;;4983156;28;20028;-58
2022/08/21 06:45:46;;;;;;;11.75;10.82;;;24.40;99.90;;;;;;4999310;28;20720;-58
2022/08/21 06:48:12;;;;;;;12.30;11.30;;;24.00;99.90;;;;;;4999972;28;20034;-59
2022/08/21 06:50:38;;;;;;;12.00;10.82;;;23.50;99.90;;;;;;4996576;28;20022;-59
2022/08/21 06:53:09;;;;;;;12.23;11.32;;;23.30;99.90;;;;;;5000118;28;20560;-58
2022/08/21 06:55:36;;;;;;;12.05;11.10;;;23.20;99.90;;;;;;4993111;28;20058;-58
2022/08/21 06:58:02;;;;;;;13.60;12.60;;;22.90;99.90;;;;;;4999933;28;20037;-58
2022/08/21 07:00:28;;;;;;;13.38;12.38;;;22.90;99.90;;;;;;4997854;28;20162;-58
2022/08/21 07:02:54;;;;;;;13.43;12.05;;;23.10;99.90;;;;;;4999734;28;20085;-59
2022/08/21 07:05:20;;;;;;;12.85;11.77;;;23.40;99.90;;;;;;4999074;28;20026;-58
2022/08/21 07:07:46;;;;;;;11.93;11.02;;;24.20;99.90;;;;;;4998408;28;20034;-58
2022/08/21 07:10:13;;;;;;;12.18;11.18;;;25.50;99.90;;;;;;4999199;28;20029;-58
2022/08/21 07:12:38;;;;;;;11.80;11.00;;;26.00;99.90;;;;;;4997284;28;20090;-58
2022/08/21 07:15:05;;;;;;;12.18;11.27;;;26.50;99.90;;;;;;4996521;28;20049;-59
2022/08/21 07:17:31;;;;;;;11.95;11.05;;;27.10;99.90;;;;;;4999650;28;20022;-59
2022/08/21 07:19:57;;;;;;;11.38;10.52;;;28.30;96.60;;;;;;5000956;28;20460;-58
2022/08/21 07:22:23;;;;;;;11.63;10.50;;;29.20;92.60;;;;;;4997279;28;20383;-58
2022/08/21 07:24:49;;;;;;;12.20;11.13;;;30.40;77.20;;;;;;4996340;28;20024;-58
2022/08/21 07:27:15;;;;;;;10.88;10.10;;;31.40;67.00;;;;;;4998015;28;20121;-59
2022/08/21 07:29:40;;;;;;;10.20;9.52;;;31.80;65.10;;;;;;5000121;28;20026;-59
2022/08/21 07:32:06;;;;;;;10.77;10.07;;;32.90;63.80;;;;;;4996076;28;20105;-59
2022/08/21 07:34:32;;;;;;;9.98;9.27;;;33.50;60.40;;;;;;4995593;28;20057;-59
2022/08/21 07:36:58;;;;;;;9.55;8.85;;;33.40;59.50;;;;;;4996226;28;20038;-59
2022/08/21 07:39:24;;;;;;;11.05;10.30;;;33.40;59.10;;;;;;4995292;28;20030;-59
2022/08/21 07:41:50;;;;;;;9.95;9.25;;;32.90;58.20;;;;;;4996457;28;20046;-59
2022/08/21 07:44:16;;;;;;;10.70;10.00;;;32.30;61.20;;;;;;4995354;28;20027;-58
2022/08/21 07:46:42;;;;;;;11.35;10.45;;;31.90;63.20;;;;;;4997587;28;20034;-58
2022/08/21 07:49:07;;;;;;;11.23;10.43;;;31.80;63.30;;;;;;4994662;28;20030;-59
2022/08/21 07:51:33;;;;;;;10.75;9.85;;;31.60;62.30;;;;;;4998910;28;20105;-58
2022/08/21 07:54:00;;;;;;;10.73;9.63;;;31.40;63.30;;;;;;4995835;28;20486;-59
2022/08/21 07:56:27;;;;;;;10.52;9.82;;;31.20;63.80;;;;;;4993127;28;20104;-58
2022/08/21 07:58:53;;;;;;;11.68;10.77;;;30.80;62.50;;;;;;4993156;28;20050;-61
2022/08/21 08:01:19;;;;;;;11.18;10.32;;;30.00;65.40;;;;;;4995470;28;20038;-61
2022/08/21 08:03:45;;;;;;;11.40;10.60;;;29.30;68.60;;;;;;4998709;28;20022;-60
2022/08/21 08:06:12;;;;;;;11.45;10.55;;;28.60;72.70;;;;;;4993541;28;20023;-62
2022/08/21 08:08:41;;;;;;;10.32;9.63;;;28.10;92.70;;;;;;4992949;28;20101;-60
2022/08/21 08:11:10;;;;;;;11.10;10.20;;;27.50;97.80;;;;;;4993125;28;20041;-62
2022/08/21 08:13:41;;;;;;;10.27;9.50;;;27.60;99.90;;;;;;5000582;28;20113;-61
2022/08/21 08:16:07;;;;;;;10.55;9.70;;;29.00;94.10;;;;;;5002276;28;20150;-61
2022/08/21 08:18:33;;;;;;;8.95;8.30;;;30.60;68.00;;;;;;5001402;28;20026;-61
2022/08/21 08:20:59;;;;;;;10.00;9.23;;;31.80;64.40;;;;;;4996914;28;20026;-62
2022/08/21 08:23:25;;;;;;;8.98;8.27;;;33.20;58.90;;;;;;4998622;28;20021;-61
2022/08/21 08:25:51;;;;;;;9.48;8.77;;;33.50;55.50;;;;;;5000636;28;20022;-62
2022/08/21 08:28:16;;;;;;;8.88;8.27;;;34.60;54.90;;;;;;4998021;28;20076;-62
2022/08/21 08:30:42;;;;;;;9.90;9.02;;;35.30;53.40;;;;;;4999900;28;20030;-61
2022/08/21 08:33:08;;;;;;;8.70;8.10;;;36.20;51.70;;;;;;4999338;28;20389;-64
2022/08/21 08:35:34;;;;;;;6.75;6.18;;;37.10;49.10;;;;;;4997788;28;20072;-64
2022/08/21 08:38:00;;;;;;;8.23;7.63;;;38.10;49.50;;;;;;5001714;28;20058;-61
2022/08/21 08:40:37;;;;;;;7.20;6.65;;;38.90;45.70;;;;;;4999579;28;20062;-61
2022/08/21 08:43:02;;;;;;;7.50;6.90;;;38.80;43.80;;;;;;4999610;28;20382;-65
2022/08/21 08:45:33;;;;;;;6.07;5.68;;;39.00;46.60;;;;;;4997024;28;20559;-62
2022/08/21 08:48:03;;;;;;;6.32;5.93;;;38.50;46.50;;;;;;5000162;28;20420;-65
2022/08/21 08:50:54;;;;;;;6.38;5.88;;;38.00;44.30;;;;;;5002084;28;20053;-61
2022/08/21 08:53:31;;;;;;;5.63;5.18;;;38.00;46.40;;;;;;5000709;28;20121;-61
2022/08/21 08:55:59;;;;;;;5.30;4.90;;;38.10;44.70;;;;;;4998718;28;20500;-62
2022/08/21 08:58:30;;;;;;;5.95;5.55;;;38.00;45.70;;;;;;5002847;28;20034;-62
2022/08/21 09:00:58;;;;;;;6.13;5.60;;;37.30;45.40;;;;;;4994678;28;20030;-61
2022/08/21 09:03:26;;;;;;;5.88;5.57;;;35.80;48.90;;;;;;5004985;28;20031;-61
2022/08/21 09:06:26;;;;;;;6.70;6.20;;;34.80;50.40;;;;;;4999404;28;20100;-64
2022/08/21 09:08:51;;;;;;;;;;;35.00;51.20;;;;;;4999950;28;20529;-62
2022/08/21 09:11:35;;;;;;;6.85;4.90;;;35.80;50.30;;;;;;4995666;28;19909;-61
2022/08/21 09:14:19;;;;;;;6.05;5.63;;;36.80;48.70;;;;;;5000156;28;20582;-61
2022/08/21 09:17:14;;;;;;;5.03;4.63;;;36.40;47.20;;;;;;4997394;28;20073;-61
2022/08/21 09:19:51;;;;;;;4.82;4.47;;;35.60;50.10;;;;;;5000669;28;20501;-61
2022/08/21 09:22:43;;;;;;;5.07;4.68;;;35.40;49.60;;;;;;5002417;28;20489;-61
2022/08/21 09:25:26;;;;;;;6.03;5.53;;;35.20;49.80;;;;;;4993807;28;20030;-61
2022/08/21 09:27:52;;;;;;;5.15;4.72;;;35.00;51.00;;;;;;4999128;28;20709;-61
2022/08/21 09:30:25;;;;;;;4.40;4.10;;;35.50;49.40;;;;;;4998067;28;20031;-61
2022/08/21 09:32:51;;;;;;;5.93;5.47;;;35.50;48.50;;;;;;5001746;28;20028;-62
2022/08/21 09:35:20;;;;;;;6.00;5.38;;;35.00;49.30;;;;;;4978720;28;20042;-61
2022/08/21 09:37:48;;;;;;;4.65;4.35;;;34.40;52.00;;;;;;4991340;28;20097;-61
2022/08/21 09:40:32;;;;;;;4.03;3.72;;;33.50;52.10;;;;;;4999267;28;20039;-60
2022/08/21 09:43:16;;;;;;;4.32;4.03;;;33.10;53.10;;;;;;5000607;28;20124;-61
2022/08/21 09:45:44;;;;;;;5.30;4.80;;;32.60;52.60;;;;;;4996182;28;20413;-61
2022/08/21 09:48:15;;;;;;;4.88;4.50;;;32.00;53.30;;;;;;5001098;28;20813;-61
2022/08/21 09:50:42;;;;;;;5.15;4.72;;;32.00;54.60;;;;;;5001379;28;20037;-61
2022/08/21 09:53:21;;;;;;;5.25;4.93;;;32.70;54.90;;;;;;5001646;28;20038;-65
2022/08/21 09:58:45;;;;;;;5.20;3.85;;;33.80;52.30;;;;;;4996301;28;20040;-62
2022/08/21 10:01:20;;;;;;;4.40;2.90;;;34.60;50.80;;;;;;4996856;28;20081;-61
2022/08/21 10:03:46;;;;;;;3.55;3.22;;;35.00;51.00;;;;;;4998249;28;20033;-62
2022/08/21 10:06:24;;;;;;;4.68;4.38;;;35.50;51.10;;;;;;5002364;28;21053;-64
2022/08/21 10:08:49;;;;;;;3.03;2.70;;;35.90;48.70;;;;;;5000552;28;20029;-61
2022/08/21 10:11:16;;;;;;;3.15;2.95;;;35.80;49.70;;;;;;4997792;28;20026;-61
2022/08/21 10:13:45;;;;;;;4.78;4.38;;;36.30;48.30;;;;;;4998371;28;20030;-61
2022/08/21 10:16:15;;;;;;;3.95;3.65;;;36.40;46.70;;;;;;4997399;28;20113;-64
2022/08/21 10:18:42;;;;;;;;;;;36.20;47.30;;;;;;5001887;28;20109;-64
2022/08/21 10:21:19;;;;;;;3.65;3.45;;;36.70;48.20;;;;;;4997087;28;19914;-61
2022/08/21 10:23:53;;;;;;;5.97;3.03;;;36.50;46.20;;;;;;4996133;28;20022;-61
2022/08/21 10:26:22;;;;;;;3.97;2.50;;;36.70;47.20;;;;;;4994660;28;20061;-62
2022/08/21 10:28:50;;;;;;;3.10;2.90;;;35.90;47.30;;;;;;4999930;28;20026;-61
2022/08/21 10:31:36;;;;;;;2.92;2.67;;;35.10;47.40;;;;;;4996429;28;20025;-61
2022/08/21 10:34:19;;;;;;;3.40;2.78;;;34.50;50.40;;;;;;4995169;28;20033;-63
2022/08/21 10:37:40;;;;;;;2.83;2.63;;;34.80;50.60;;;;;;4997160;28;20621;-61
2022/08/21 10:40:19;;;;;;;3.08;2.80;;;35.90;49.20;;;;;;4942372;29;21000;-61
2022/08/21 10:43:03;;;;;;;2.58;2.38;;;36.70;47.60;;;;;;4992298;28;20038;-61
2022/08/21 10:45:42;;;;;;;2.60;2.30;;;37.30;45.80;;;;;;4996901;28;20027;-62
2022/08/21 10:48:18;;;;;;;2.47;2.28;;;38.30;44.50;;;;;;4996332;28;20057;-63
2022/08/21 10:51:06;;;;;;;2.47;2.28;;;39.20;43.50;;;;;;4993324;28;20026;-61
2022/08/21 10:53:40;;;;;;;2.47;2.00;;;39.50;42.40;;;;;;4995903;28;20041;-61
2022/08/21 10:56:30;;;;;;;2.67;2.20;;;39.90;41.40;;;;;;4998919;28;20989;-61
2022/08/21 10:59:11;;;;;;;2.45;2.25;;;40.30;39.80;;;;;;4999262;28;20044;-64
2022/08/21 11:02:06;;;;;;;2.42;2.22;;;39.50;41.50;;;;;;4998942;28;20234;-60
2022/08/21 11:04:39;;;;;;;2.40;2.20;;;38.30;40.70;;;;;;4991772;28;20176;-61
2022/08/21 11:07:19;;;;;;;3.83;2.00;;;37.20;44.20;;;;;;5000182;28;20083;-63
2022/08/21 11:09:49;;;;;;;3.22;2.28;;;36.70;45.20;;;;;;5000898;28;20078;-63
2022/08/21 11:12:46;;;;;;;2.40;2.20;;;36.40;46.20;;;;;;4997649;28;20110;-60
2022/08/21 11:15:24;;;;;;;2.10;1.90;;;36.00;47.00;;;;;;4994130;28;25321;-60
2022/08/21 11:17:57;;;;;;;2.03;1.83;;;36.00;44.20;;;;;;4994050;28;20026;-61
2022/08/21 11:20:30;;;;;;;2.85;2.65;;;36.30;44.80;;;;;;4991792;28;20037;-61
2022/08/21 11:23:06;;;;;;;2.30;2.10;;;36.10;45.20;;;;;;4999446;28;20029;-63
2022/08/21 11:25:39;;;;;;;2.58;2.00;;;35.30;45.10;;;;;;4996238;28;20494;-60
2022/08/21 11:28:20;;;;;;;2.22;2.00;;;34.80;46.30;;;;;;4996772;28;20039;-60
2022/08/21 11:31:04;;;;;;;;;;;34.20;47.30;;;;;;4994517;28;20086;-63
2022/08/21 11:33:34;;;;;;;3.72;2.17;;;33.90;47.10;;;;;;4992258;28;19913;-63
2022/08/21 11:36:11;;;;;;;2.40;2.20;;;33.80;45.20;;;;;;4994758;28;20489;-64
2022/08/21 11:38:41;;;;;;;2.15;1.95;;;34.10;46.70;;;;;;4994819;28;20022;-60
2022/08/21 11:41:12;;;;;;;2.00;1.90;;;34.80;45.70;;;;;;4994370;28;20031;-61
2022/08/21 11:44:15;;;;;;;2.45;1.50;;;35.40;43.10;;;;;;5000292;28;20054;-61
2022/08/21 11:46:48;;;;;;;3.05;2.00;;;36.00;43.00;;;;;;4999586;28;20022;-61
2022/08/21 11:49:32;;;;;;;1.90;1.80;;;36.10;43.00;;;;;;4999258;28;20030;-61
2022/08/21 11:52:08;;;;;;;2.35;2.13;;;36.20;41.50;;;;;;4996940;28;20050;-61
2022/08/21 11:54:40;;;;;;;2.20;2.00;;;35.80;42.60;;;;;;5002021;28;20109;-63
2022/08/21 11:57:13;;;;;;;2.40;2.15;;;35.90;43.90;;;;;;5002535;28;20087;-60
2022/08/21 11:59:49;;;;;;;3.30;2.10;;;35.80;41.80;;;;;;4999599;28;20029;-63
2022/08/21 12:02:19;;;;;;;1.90;1.80;;;35.60;42.80;;;;;;5001548;28;20026;-60
2022/08/21 12:05:03;;;;;;;2.47;2.17;;;35.30;43.50;;;;;;5000101;28;20125;-60
2022/08/21 12:07:42;;;;;;;5.15;2.17;;;35.30;43.30;;;;;;4998890;28;20034;-60
2022/08/21 12:10:20;;;;;;;1.98;1.75;;;35.20;41.90;;;;;;5012783;28;20027;-63
2022/08/21 12:12:46;;;;;;;1.85;1.70;;;34.60;40.50;;;;;;5002045;28;20040;-60
2022/08/21 12:15:15;;;;;;;2.50;2.30;;;34.40;43.90;;;;;;5000721;28;20041;-61
2022/08/21 12:17:56;;;;;;;2.20;2.00;;;34.20;43.30;;;;;;4996695;28;20018;-61
2022/08/21 12:20:40;;;;;;;2.08;1.88;;;34.00;41.20;;;;;;4995681;28;20525;-65
2022/08/21 12:23:24;;;;;;;2.08;1.88;;;33.70;41.80;;;;;;5000273;28;20121;-62
2022/08/21 12:26:02;;;;;;;2.45;2.25;;;33.60;41.70;;;;;;5001219;28;20034;-62
2022/08/21 12:28:30;;;;;;;2.17;1.98;;;33.70;42.50;;;;;;4997841;28;20114;-61
2022/08/21 12:30:57;;;;;;;1.80;1.70;;;33.40;41.80;;;;;;4999289;28;20472;-62
2022/08/21 12:33:39;;;;;;;2.08;1.98;;;33.60;42.50;;;;;;4999858;28;20049;-63
2022/08/21 12:36:20;;;;;;;2.30;2.10;;;33.60;42.90;;;;;;4999115;28;20453;-63
2022/08/21 12:39:00;;;;;;;2.20;2.10;;;33.60;41.80;;;;;;5001507;28;20018;-60
2022/08/21 12:41:31;;;;;;;2.40;2.20;;;33.30;43.50;;;;;;4980286;28;20050;-61
2022/08/21 12:44:22;;;;;;;2.65;2.45;;;33.00;43.30;;;;;;4992552;28;20030;-61
2022/08/21 12:46:55;;;;;;;1.98;1.88;;;32.70;41.30;;;;;;4997435;28;20031;-60
2022/08/21 12:49:37;;;;;;;2.55;2.35;;;32.50;40.60;;;;;;5001508;28;20029;-61
2022/08/21 12:52:08;;;;;;;3.17;2.58;;;32.30;41.70;;;;;;4999595;28;20058;-60